Aérodrome :
LOGIN :

S'inscrire | Disclaimer

   EN    FR    IT 

 










Légende :    VFR   VFR Marginal   IFR   IFR Intensif   IFR Très Intensif
Visi : 
Plafond : 
>= 8 km
>= 3000ft
5 à 8 km
1000 à 3000 ft
1500m à 5 km
500 à 1000 ft
800 à 1500m
200 à 500 ft
< 800m
< 200 ft
Symboles :   Orages  Brouillard  Fortes neiges  Fortes précipitations  Vent > 20 kt
SIGMETs :   Divers  Orages  Givrage  Turbulence  Onde Orograph.  Cendres Volcan.







- Altitude de l'aérodrome : 392 ft
- Code IATA : CDG
- Voir les cartes d'approche


LFPG - Paris-Aeroport Charles De Gaulle

DERNIER METAR :
  • 231600Z 33004KT 300V360 CAVOK 20/10 Q1015 NOSIG

METARs EXPIRÉS :
  • 231530Z 27009KT CAVOK 21/09 Q1015 NOSIG
  • 231500Z 26008KT 230V290 CAVOK 21/09 Q1015 NOSIG
  • 231430Z 28008KT 220V310 9999 SCT049 BKN071 21/09 Q1015 NOSIG
  • 231400Z 26010KT 9999 SCT046 BKN063 20/10 Q1016 TEMPO 25015G25KT
  • 231330Z 26009KT 230V300 CAVOK 20/10 Q1016 TEMPO 25015G25KT

TAF TAF LFPG
Valide du 23 à 12h jusqu'au 24 à 18h UTC


231100Z 2312/2418 23010G20KT 9999 BKN030
PROB40
TEMPO 2312/2316 25015G25KT -SHRA SCT030TCU
BECMG 2318/2320 24003KT
PROB40
TEMPO 2319/2401 2000 RA BKN005 SCT015TCU
BECMG 2406/2408 28010KT BKN020
PROB40
TEMPO 2411/2416 31015G25KT 4000 SHRA BKN012 SCT020TCU TX22/2315Z TN13/2404Z
ATIS : +33 1 48 62 10 92
Pas de NOTAMs connus pour ce terrain.



MET'MAP, la Météo Aéronautique d'un coup d'oeil ! - Copyright ORBIFLY Décembre 2007 - Disclaimer

ORBIFLY MET'MAP TEAM :

Programmation & Développement : Alexandra Zaïnal
Conception & Développement : Baudouin d'Aumeries
Co-Programmation & Développement : Marc-Olivier Méhu
Soutien technique & logistique : Manuel Goepfert

Contact : metmap@orbifly.com




SOURCES & CREDITS :

   NOAA